Time,TemperatureF,DewpointF,PressureIn,WindDirection,WindDirectionDegrees,WindSpeedMPH,WindSpeedGustMPH,Humidity,HourlyPrecipIn,Conditions,Clouds,dailyrainin,SoftwareType,DateUTC
2013-06-15 11:35:00,67.9,57.8,29.98,West,259,6.0,6.0,70,0.00,,,0.00,Wunderground v.1.15,2013-06-15 15:35:00,
2013-06-15 11:40:00,67.6,56.2,29.99,West,278,5.0,6.0,67,0.00,,,0.00,Wunderground v.1.15,2013-06-15 15:40:00,
2013-06-15 11:45:00,67.4,56.5,29.98,West,279,5.0,5.0,68,0.00,,,0.00,Wunderground v.1.15,2013-06-15 15:45:00,
2013-06-15 11:50:00,67.4,56.5,29.98,West,269,4.0,5.0,68,0.00,,,0.00,Wunderground v.1.15,2013-06-15 15:50:00,
2013-06-15 11:55:00,67.4,55.6,29.97,WSW,252,5.0,5.0,66,0.00,,,0.00,Wunderground v.1.15,2013-06-15 15:55:00,
2013-06-15 12:00:00,68.0,56.6,29.97,WSW,238,5.0,5.0,67,0.00,,,0.00,Wunderground v.1.15,2013-06-15 16:00:00,
2013-06-15 12:10:00,68.1,53.2,29.97,WNW,286,6.0,6.0,59,0.00,,,0.00,Wunderground v.1.15,2013-06-15 16:10:00,
2013-06-15 12:15:00,68.4,57.0,29.97,WNW,290,5.0,8.0,67,0.00,,,0.00,Wunderground v.1.15,2013-06-15 16:15:00,
2013-06-15 12:20:00,68.5,54.1,29.97,West,261,5.0,5.0,60,0.00,,,0.00,Wunderground v.1.15,2013-06-15 16:20:00,
2013-06-15 12:25:00,68.8,54.3,29.97,West,263,5.0,8.0,60,0.00,,,0.00,Wunderground v.1.15,2013-06-15 16:25:00,
2013-06-15 12:30:00,69.0,52.6,29.97,WSW,257,6.0,6.0,56,0.00,,,0.00,Wunderground v.1.15,2013-06-15 16:30:00,
2013-06-15 12:40:00,69.1,49.7,29.97,WSW,247,6.0,9.0,50,0.00,,,0.00,Wunderground v.1.15,2013-06-15 16:40:00,
2013-06-15 12:45:00,69.3,49.3,29.97,West,267,6.0,9.0,49,0.00,,,0.00,Wunderground v.1.15,2013-06-15 16:45:00,
2013-06-15 12:50:00,69.3,50.4,29.96,West,277,6.0,6.0,51,0.00,,,0.00,Wunderground v.1.15,2013-06-15 16:50:00,
2013-06-15 13:00:00,69.9,53.5,29.96,West,268,4.0,4.0,56,0.00,,,0.00,Wunderground v.1.15,2013-06-15 17:00:00,
2013-06-15 13:05:00,70.0,52.1,29.96,West,264,4.0,5.0,53,0.00,,,0.00,Wunderground v.1.15,2013-06-15 17:05:00,
2013-06-15 13:10:00,70.0,50.5,29.96,WSW,252,5.0,5.0,50,0.00,,,0.00,Wunderground v.1.15,2013-06-15 17:10:00,
2013-06-15 13:15:00,69.8,49.8,29.96,WSW,257,6.0,6.0,49,0.00,,,0.00,Wunderground v.1.15,2013-06-15 17:15:00,
2013-06-15 13:20:00,69.9,49.9,29.96,NNW,330,6.0,6.0,49,0.00,,,0.00,Wunderground v.1.15,2013-06-15 17:20:00,
2013-06-15 13:25:00,70.2,51.2,29.95,WNW,292,6.0,6.0,51,0.00,,,0.00,Wunderground v.1.15,2013-06-15 17:25:00,
2013-06-15 13:30:00,70.4,50.3,29.95,West,268,5.0,5.0,49,0.00,,,0.00,Wunderground v.1.15,2013-06-15 17:30:00,
2013-06-15 13:35:00,70.5,52.0,29.95,NNW,333,5.0,5.0,52,0.00,,,0.00,Wunderground v.1.15,2013-06-15 17:35:00,
2013-06-15 13:40:00,70.7,52.7,29.95,WNW,302,6.0,6.0,53,0.00,,,0.00,Wunderground v.1.15,2013-06-15 17:40:00,
2013-06-15 13:45:00,70.8,51.2,29.94,WNW,282,5.0,12.0,50,0.00,,,0.00,Wunderground v.1.15,2013-06-15 17:45:00,
2013-06-15 13:50:00,70.7,51.7,29.94,WSW,237,6.0,6.0,51,0.00,,,0.00,Wunderground v.1.15,2013-06-15 17:50:00,
2013-06-15 14:00:00,71.3,54.3,29.94,WNW,298,5.0,5.0,55,0.00,,,0.00,Wunderground v.1.15,2013-06-15 18:00:00,
2013-06-15 14:10:00,71.5,51.9,29.94,WSW,239,5.0,5.0,50,0.00,,,0.00,Wunderground v.1.15,2013-06-15 18:10:00,
2013-06-15 14:15:00,71.6,50.9,29.94,NW,306,5.0,5.0,48,0.00,,,0.00,Wunderground v.1.15,2013-06-15 18:15:00,
2013-06-15 14:20:00,71.9,52.8,29.94,SW,214,5.0,5.0,51,0.00,,,0.00,Wunderground v.1.15,2013-06-15 18:20:00,
2013-06-15 14:25:00,72.0,50.7,29.94,West,274,6.0,6.0,47,0.00,,,0.00,Wunderground v.1.15,2013-06-15 18:25:00,
2013-06-15 14:30:00,72.0,51.2,29.94,West,269,6.0,11.0,48,0.00,,,0.00,Wunderground v.1.15,2013-06-15 18:30:00,
2013-06-15 14:35:00,72.1,52.4,29.94,WNW,293,6.0,11.0,50,0.00,,,0.00,Wunderground v.1.15,2013-06-15 18:35:00,
2013-06-15 14:40:00,72.3,54.2,29.93,West,267,4.0,4.0,53,0.00,,,0.00,Wunderground v.1.15,2013-06-15 18:40:00,
2013-06-15 14:45:00,72.4,51.6,29.94,NW,304,4.0,5.0,48,0.00,,,0.00,Wunderground v.1.15,2013-06-15 18:45:00,
2013-06-15 14:50:00,72.5,52.2,29.93,WNW,288,4.0,5.0,49,0.00,,,0.00,Wunderground v.1.15,2013-06-15 18:50:00,
2013-06-15 14:55:00,72.5,51.7,29.93,West,263,4.0,5.0,48,0.00,,,0.00,Wunderground v.1.15,2013-06-15 18:55:00,
2013-06-15 15:00:00,72.8,54.1,29.93,WNW,283,4.0,4.0,52,0.00,,,0.00,Wunderground v.1.15,2013-06-15 19:00:00,
2013-06-15 15:05:00,72.9,51.5,29.93,West,265,4.0,4.0,47,0.00,,,0.00,Wunderground v.1.15,2013-06-15 19:05:00,
2013-06-15 15:10:00,72.9,49.7,29.93,WNW,292,5.0,5.0,44,0.00,,,0.00,Wunderground v.1.15,2013-06-15 19:10:00,
2013-06-15 15:15:00,72.8,50.2,29.93,WSW,252,6.0,7.0,45,0.00,,,0.00,Wunderground v.1.15,2013-06-15 19:15:00,
2013-06-15 15:20:00,72.9,52.1,29.93,West,279,5.0,6.0,48,0.00,,,0.00,Wunderground v.1.15,2013-06-15 19:20:00,
2013-06-15 15:25:00,72.9,51.5,29.93,WNW,284,6.0,11.0,47,0.00,,,0.00,Wunderground v.1.15,2013-06-15 19:25:00,
2013-06-15 15:35:00,73.3,52.4,29.93,West,281,5.0,8.0,48,0.00,,,0.00,Wunderground v.1.15,2013-06-15 19:35:00,
2013-06-15 15:40:00,73.4,50.8,29.93,WSW,257,5.0,12.0,45,0.00,,,0.00,Wunderground v.1.15,2013-06-15 19:40:00,
2013-06-15 15:50:00,73.3,51.8,29.93,WSW,254,6.0,6.0,47,0.00,,,0.00,Wunderground v.1.15,2013-06-15 19:50:00,
2013-06-15 15:55:00,73.4,53.6,29.92,West,264,5.0,6.0,50,0.00,,,0.00,Wunderground v.1.15,2013-06-15 19:55:00,
2013-06-15 16:00:00,73.8,52.3,29.92,WNW,300,5.0,6.0,47,0.00,,,0.00,Wunderground v.1.15,2013-06-15 20:00:00,
2013-06-15 16:05:00,73.7,51.6,29.92,WNW,288,5.0,7.0,46,0.00,,,0.00,Wunderground v.1.15,2013-06-15 20:05:00,
2013-06-15 16:10:00,73.5,52.0,29.92,WNW,290,5.0,8.0,47,0.00,,,0.00,Wunderground v.1.15,2013-06-15 20:10:00,
2013-06-15 16:20:00,73.8,52.3,29.92,West,276,5.0,5.0,47,0.00,,,0.00,Wunderground v.1.15,2013-06-15 20:20:00,
2013-06-15 16:25:00,73.5,54.3,29.92,WSW,237,6.0,6.0,51,0.00,,,0.00,Wunderground v.1.15,2013-06-15 20:25:00,
2013-06-15 16:30:00,73.5,58.3,29.91,South,184,5.0,8.0,59,0.00,,,0.00,Wunderground v.1.15,2013-06-15 20:30:00,
2013-06-15 16:40:00,72.8,57.2,29.91,SW,223,7.0,7.0,58,0.00,,,0.00,Wunderground v.1.15,2013-06-15 20:40:00,
2013-06-15 16:45:00,72.6,57.9,29.91,SSW,196,7.0,14.0,60,0.00,,,0.00,Wunderground v.1.15,2013-06-15 20:45:00,
2013-06-15 16:55:00,72.2,57.1,29.91,SW,215,5.0,14.0,59,0.00,,,0.00,Wunderground v.1.15,2013-06-15 20:55:00,
2013-06-15 17:00:00,72.3,58.5,29.91,South,191,5.0,5.0,62,0.00,,,0.00,Wunderground v.1.15,2013-06-15 21:00:00,
2013-06-15 17:05:00,72.5,57.8,29.91,SSW,210,5.0,9.0,60,0.00,,,0.00,Wunderground v.1.15,2013-06-15 21:05:00,
2013-06-15 17:10:00,72.5,57.4,29.91,SW,226,6.0,6.0,59,0.00,,,0.00,Wunderground v.1.15,2013-06-15 21:10:00,
2013-06-15 17:15:00,72.7,56.6,29.91,WSW,245,6.0,7.0,57,0.00,,,0.00,Wunderground v.1.15,2013-06-15 21:15:00,
2013-06-15 17:20:00,72.8,55.7,29.90,WSW,240,6.0,14.0,55,0.00,,,0.00,Wunderground v.1.15,2013-06-15 21:20:00,
2013-06-15 17:25:00,72.8,57.2,29.90,WSW,238,6.0,14.0,58,0.00,,,0.00,Wunderground v.1.15,2013-06-15 21:25:00,
2013-06-15 17:30:00,73.0,56.9,29.90,SW,215,5.0,5.0,57,0.00,,,0.00,Wunderground v.1.15,2013-06-15 21:30:00,
2013-06-15 17:35:00,73.2,56.6,29.90,SW,215,5.0,14.0,56,0.00,,,0.00,Wunderground v.1.15,2013-06-15 21:35:00,
2013-06-15 17:40:00,73.2,56.1,29.90,SW,231,5.0,5.0,55,0.00,,,0.00,Wunderground v.1.15,2013-06-15 21:40:00,
2013-06-15 17:50:00,73.0,56.9,29.90,SSW,201,5.0,5.0,57,0.00,,,0.00,Wunderground v.1.15,2013-06-15 21:50:00,
2013-06-15 17:55:00,72.9,55.3,29.90,SW,227,6.0,9.0,54,0.00,,,0.00,Wunderground v.1.15,2013-06-15 21:55:00,
2013-06-15 18:05:00,72.7,55.6,29.90,SW,229,6.0,14.0,55,0.00,,,0.00,Wunderground v.1.15,2013-06-15 22:05:00,
2013-06-15 18:10:00,72.5,56.4,29.90,SW,223,6.0,14.0,57,0.00,,,0.00,Wunderground v.1.15,2013-06-15 22:10:00,
2013-06-15 18:15:00,72.2,57.1,29.91,SW,218,7.0,14.0,59,0.00,,,0.00,Wunderground v.1.15,2013-06-15 22:15:00,
2013-06-15 18:20:00,72.0,57.4,29.91,WSW,244,7.0,7.0,60,0.00,,,0.00,Wunderground v.1.15,2013-06-15 22:20:00,
2013-06-15 18:25:00,71.7,58.0,29.90,SSW,211,7.0,14.0,62,0.00,,,0.00,Wunderground v.1.15,2013-06-15 22:25:00,
2013-06-15 18:35:00,71.1,56.5,29.90,SW,223,7.0,14.0,60,0.00,,,0.00,Wunderground v.1.15,2013-06-15 22:35:00,
2013-06-15 18:40:00,71.0,56.9,29.90,WSW,240,7.0,7.0,61,0.00,,,0.00,Wunderground v.1.15,2013-06-15 22:40:00,
2013-06-15 18:45:00,70.8,56.7,29.90,SSW,207,6.0,14.0,61,0.00,,,0.00,Wunderground v.1.15,2013-06-15 22:45:00,
2013-06-15 18:55:00,70.9,57.2,29.90,SSE,150,4.0,14.0,62,0.00,,,0.00,Wunderground v.1.15,2013-06-15 22:55:00,
2013-06-15 19:00:00,70.6,56.5,29.90,South,175,4.0,14.0,61,0.00,,,0.00,Wunderground v.1.15,2013-06-15 23:00:00,
2013-06-15 19:10:00,70.4,55.8,29.89,SW,218,5.0,14.0,60,0.00,,,0.00,Wunderground v.1.15,2013-06-15 23:10:00,
2013-06-15 19:15:00,70.3,56.2,29.89,SSW,209,6.0,14.0,61,0.00,,,0.00,Wunderground v.1.15,2013-06-15 23:15:00,
2013-06-15 19:20:00,70.2,56.1,29.89,SW,233,6.0,14.0,61,0.00,,,0.00,Wunderground v.1.15,2013-06-15 23:20:00,
2013-06-15 19:25:00,69.9,55.8,29.89,SW,236,5.0,14.0,61,0.00,,,0.00,Wunderground v.1.15,2013-06-15 23:25:00,
2013-06-15 19:30:00,69.7,56.1,29.89,SSW,210,5.0,14.0,62,0.00,,,0.00,Wunderground v.1.15,2013-06-15 23:30:00,
2013-06-15 19:35:00,69.4,56.7,29.89,SSW,208,4.0,14.0,64,0.00,,,0.00,Wunderground v.1.15,2013-06-15 23:35:00,
2013-06-15 19:45:00,69.0,55.4,29.89,SSW,213,4.0,14.0,62,0.00,,,0.00,Wunderground v.1.15,2013-06-15 23:45:00,
2013-06-15 19:55:00,68.4,55.3,29.89,SSW,192,4.0,14.0,63,0.00,,,0.00,Wunderground v.1.15,2013-06-15 23:55:00,
2013-06-15 20:00:00,68.2,55.6,29.89,SSW,205,4.0,4.0,64,0.00,,,0.00,Wunderground v.1.15,2013-06-16 00:00:00,
2013-06-15 20:10:00,68.0,55.8,29.89,SSW,213,3.0,5.0,65,0.00,,,0.00,Wunderground v.1.15,2013-06-16 00:10:00,
2013-06-15 20:20:00,67.5,54.9,29.89,SSW,211,3.0,3.0,64,0.00,,,0.00,Wunderground v.1.15,2013-06-16 00:20:00,
2013-06-15 20:25:00,67.2,55.0,29.89,SSW,210,3.0,3.0,65,0.00,,,0.00,Wunderground v.1.15,2013-06-16 00:25:00,
2013-06-15 20:30:00,67.0,55.3,29.89,SSW,213,3.0,3.0,66,0.00,,,0.00,Wunderground v.1.15,2013-06-16 00:30:00,
2013-06-15 20:35:00,66.9,56.0,29.89,SSW,203,4.0,4.0,68,0.00,,,0.00,Wunderground v.1.15,2013-06-16 00:35:00,
2013-06-15 20:40:00,66.8,55.9,29.89,SW,217,4.0,4.0,68,0.00,,,0.00,Wunderground v.1.15,2013-06-16 00:40:00,
2013-06-15 20:50:00,66.5,56.0,29.89,SW,218,4.0,4.0,69,0.00,,,0.00,Wunderground v.1.15,2013-06-16 00:50:00,
2013-06-15 20:55:00,66.3,55.8,29.89,SW,218,3.0,4.0,69,0.00,,,0.00,Wunderground v.1.15,2013-06-16 00:55:00,
2013-06-15 21:00:00,66.1,56.0,29.89,SSW,198,2.0,3.0,70,0.00,,,0.00,Wunderground v.1.15,2013-06-16 01:00:00,
2013-06-15 21:10:00,65.8,56.1,29.89,South,184,1.0,1.0,71,0.00,,,0.00,Wunderground v.1.15,2013-06-16 01:10:00,
2013-06-15 21:15:00,65.8,56.1,29.89,SSW,203,2.0,2.0,71,0.00,,,0.00,Wunderground v.1.15,2013-06-16 01:15:00,
2013-06-15 21:20:00,65.9,56.6,29.89,SW,225,3.0,3.0,72,0.00,,,0.00,Wunderground v.1.15,2013-06-16 01:20:00,
2013-06-15 21:25:00,66.1,56.8,29.89,SSW,211,3.0,7.0,72,0.00,,,0.00,Wunderground v.1.15,2013-06-16 01:25:00,
2013-06-15 21:30:00,66.3,57.0,29.89,SW,227,4.0,4.0,72,0.00,,,0.00,Wunderground v.1.15,2013-06-16 01:30:00,
2013-06-15 21:35:00,66.5,56.8,29.89,SW,215,4.0,7.0,71,0.00,,,0.00,Wunderground v.1.15,2013-06-16 01:35:00,
2013-06-15 21:40:00,66.6,56.9,29.89,SW,228,4.0,5.0,71,0.00,,,0.00,Wunderground v.1.15,2013-06-16 01:40:00,
2013-06-15 21:45:00,66.6,56.9,29.88,South,179,5.0,9.0,71,0.00,,,0.00,Wunderground v.1.15,2013-06-16 01:45:00,
2013-06-15 21:50:00,66.7,57.0,29.89,SW,217,5.0,6.0,71,0.00,,,0.00,Wunderground v.1.15,2013-06-16 01:50:00,
2013-06-15 22:00:00,66.8,57.1,29.89,SW,227,4.0,4.0,71,0.00,,,0.00,Wunderground v.1.15,2013-06-16 02:00:00,
2013-06-15 22:05:00,66.8,57.1,29.89,SW,218,4.0,4.0,71,0.00,,,0.00,Wunderground v.1.15,2013-06-16 02:05:00,
2013-06-15 22:10:00,66.8,57.1,29.89,SSW,212,4.0,4.0,71,0.00,,,0.00,Wunderground v.1.15,2013-06-16 02:10:00,
2013-06-15 22:20:00,66.7,57.0,29.88,SW,224,4.0,4.0,71,0.00,,,0.00,Wunderground v.1.15,2013-06-16 02:20:00,
2013-06-15 22:25:00,66.5,57.2,29.88,SW,219,3.0,4.0,72,0.00,,,0.00,Wunderground v.1.15,2013-06-16 02:25:00,
2013-06-15 22:30:00,66.4,57.1,29.88,SW,215,3.0,3.0,72,0.00,,,0.00,Wunderground v.1.15,2013-06-16 02:30:00,
2013-06-15 22:35:00,66.3,57.0,29.88,SSW,203,3.0,3.0,72,0.00,,,0.00,Wunderground v.1.15,2013-06-16 02:35:00,
2013-06-15 22:40:00,66.2,56.9,29.88,SSW,213,3.0,3.0,72,0.00,,,0.00,Wunderground v.1.15,2013-06-16 02:40:00,
2013-06-15 22:45:00,66.1,56.8,29.87,SW,214,2.0,3.0,72,0.00,,,0.00,Wunderground v.1.15,2013-06-16 02:45:00,
2013-06-15 22:50:00,66.0,57.1,29.88,SW,215,2.0,5.0,73,0.00,,,0.00,Wunderground v.1.15,2013-06-16 02:50:00,
2013-06-15 22:55:00,65.9,57.0,29.88,SSW,211,3.0,5.0,73,0.00,,,0.00,Wunderground v.1.15,2013-06-16 02:55:00,
2013-06-15 23:05:00,65.8,56.9,29.87,SSW,211,3.0,4.0,73,0.00,,,0.00,Wunderground v.1.15,2013-06-16 03:05:00,
2013-06-15 23:10:00,65.6,56.7,29.87,SSW,202,1.0,7.0,73,0.00,,,0.00,Wunderground v.1.15,2013-06-16 03:10:00,
2013-06-15 23:15:00,65.4,56.5,29.87,SSW,207,1.0,8.0,73,0.00,,,0.00,Wunderground v.1.15,2013-06-16 03:15:00,
2013-06-15 23:20:00,65.3,56.4,29.87,SSW,198,2.0,2.0,73,0.00,,,0.00,Wunderground v.1.15,2013-06-16 03:20:00,
2013-06-15 23:30:00,65.2,56.7,29.87,SSW,211,2.0,2.0,74,0.00,,,0.00,Wunderground v.1.15,2013-06-16 03:30:00,
2013-06-15 23:40:00,65.2,56.7,29.87,SW,219,2.0,2.0,74,0.00,,,0.00,Wunderground v.1.15,2013-06-16 03:40:00,
2013-06-15 23:45:00,65.2,56.7,29.87,SSW,195,2.0,2.0,74,0.00,,,0.00,Wunderground v.1.15,2013-06-16 03:45:00,
2013-06-15 23:50:00,65.2,56.7,29.86,SW,232,2.0,2.0,74,0.00,,,0.00,Wunderground v.1.15,2013-06-16 03:50:00,
2013-06-15 23:55:00,65.1,56.6,29.87,SSW,198,2.0,3.0,74,0.00,,,0.00,Wunderground v.1.15,2013-06-16 03:55:00,